Terminal Aerodrome Forecast
Issued by NWS

Home | Current Version | Previous Version | Text Only | Print | Product List | Glossary Off
Versions: 1 2 3 4 5 6 7 8 9 10 11 12 13 14 15 16 17 18 19 20 21 22 23 24 25

503
FTUS43 KLOT 080526
TAFMDW
TAF
KMDW 080526Z 0806/0906 25008KT P6SM SCT050 SCT150
     FM081000 29009KT P6SM -SHSN OVC025
      TEMPO 0811/0815 2SM -SHSN OVC015
     FM081500 29011KT P6SM -SHSN OVC020
     FM090200 32012G20KT 2SM -SN BR OVC018=

USA.gov is the U.S. government's official web portal to all federal, state and local government web resources and services.